Time;durP1;ratioP1;P1;durP2;ratioP2;P2;SDS_P1;SDS_P2;PMS_P1;PMS_P2;Temp;Humidity;BMP_temperature;BMP_pressure;BME280_temperature;BME280_humidity;BME280_pressure;Samples;Min_cycle;Max_cycle;Signal;HPM_P1;HPM_P2
2022/10/11 00:02:33;;;;;;;2.65;2.10;;;16.10;99.90;;;;;;1905439;74;21064;-84
2022/10/11 00:05:25;;;;;;;6.05;1.92;;;16.00;99.90;;;;;;1918087;74;21076;-84
2022/10/11 00:08:16;;;;;;;3.55;2.00;;;16.00;99.90;;;;;;1903827;74;21106;-84
2022/10/11 00:11:10;;;;;;;3.20;2.30;;;16.00;99.90;;;;;;1904614;74;21109;-84
2022/10/11 00:14:01;;;;;;;5.60;1.77;;;16.00;99.90;;;;;;1900915;75;21098;-84
2022/10/11 00:16:53;;;;;;;3.80;2.17;;;16.00;99.90;;;;;;1927613;74;22759;-84
2022/10/11 00:19:45;;;;;;;2.98;2.05;;;16.00;99.90;;;;;;1931302;74;21131;-84
2022/10/11 00:22:37;;;;;;;2.87;2.15;;;16.00;99.90;;;;;;1915485;73;21088;-84
2022/10/11 00:25:28;;;;;;;3.92;2.22;;;15.80;99.90;;;;;;1911618;74;21053;-84
2022/10/11 00:28:20;;;;;;;5.80;1.98;;;15.80;99.90;;;;;;1906659;75;21571;-84
2022/10/11 00:31:14;;;;;;;6.20;2.58;;;15.80;99.90;;;;;;1916034;74;21089;-84
2022/10/11 00:34:06;;;;;;;5.83;2.47;;;15.80;99.90;;;;;;1911551;74;21153;-84
2022/10/11 00:39:46;;;;;;;4.30;2.08;;;15.80;99.90;;;;;;1946003;72;22142;-84
2022/10/11 00:42:37;;;;;;;4.37;2.33;;;15.70;99.90;;;;;;1889778;75;21496;-85
2022/10/11 00:46:17;;;;;;;4.35;2.30;;;15.70;99.90;;;;;;1902722;75;21091;-85
2022/10/11 00:49:14;;;;;;;4.70;2.20;;;15.70;99.90;;;;;;1889009;75;21080;-84
2022/10/11 00:54:58;;;;;;;2.30;1.87;;;15.70;99.90;;;;;;1948142;72;22209;-84
2022/10/11 00:57:52;;;;;;;8.25;2.60;;;15.70;99.90;;;;;;1862416;76;21114;-85
2022/10/11 01:00:44;;;;;;;2.60;1.90;;;15.60;99.90;;;;;;1917907;73;21117;-84
2022/10/11 01:03:39;;;;;;;4.97;2.33;;;15.60;99.90;;;;;;1918111;75;21092;-84
2022/10/11 01:06:31;;;;;;;2.27;2.00;;;15.50;99.90;;;;;;1919338;73;21527;-84
2022/10/11 01:12:16;;;;;;;2.87;2.02;;;15.60;99.90;;;;;;1952989;72;22190;-83
2022/10/11 01:15:15;;;;;;;4.20;2.10;;;15.60;99.90;;;;;;1876525;75;21224;-84
2022/10/11 01:18:10;;;;;;;5.83;2.40;;;15.60;99.90;;;;;;1893710;75;21099;-83
2022/10/11 01:21:06;;;;;;;3.40;2.27;;;15.50;99.90;;;;;;1872989;76;21203;-84
2022/10/11 01:24:25;;;;;;;7.28;2.40;;;15.50;99.90;;;;;;1873032;75;21095;-84
2022/10/11 01:27:37;;;;;;;6.15;2.47;;;15.40;99.90;;;;;;1873144;75;21165;-84
2022/10/11 01:30:30;;;;;;;3.90;2.30;;;15.40;99.90;;;;;;1873205;75;21132;-84
2022/10/11 01:33:27;;;;;;;4.10;2.60;;;15.30;99.90;;;;;;1873134;75;21125;-84
2022/10/11 01:36:26;;;;;;;3.00;2.02;;;15.30;99.90;;;;;;1873302;75;21114;-84
2022/10/11 01:39:18;;;;;;;3.27;2.17;;;15.30;99.90;;;;;;1895075;75;21051;-84
2022/10/11 01:42:12;;;;;;;4.30;2.40;;;15.30;99.90;;;;;;1878660;75;21110;-84
2022/10/11 01:45:04;;;;;;;4.45;2.37;;;15.30;99.90;;;;;;1891875;75;21176;-84
2022/10/11 01:51:04;;;;;;;3.98;2.72;;;15.30;99.90;;;;;;1942045;72;22175;-83
2022/10/11 01:57:17;;;;;;;6.50;2.92;;;15.20;99.90;;;;;;1944213;72;22191;-84
2022/10/11 02:03:01;;;;;;;3.55;2.20;;;15.20;99.90;;;;;;1928759;72;22172;-83
2022/10/11 02:08:47;;;;;;;3.45;1.80;;;15.20;99.90;;;;;;1959712;72;22283;-83
2022/10/11 02:11:40;;;;;;;2.85;2.10;;;15.30;99.90;;;;;;1934758;73;21517;-85
2022/10/11 02:14:35;;;;;;;4.92;2.27;;;15.30;99.90;;;;;;1926983;73;21096;-84
2022/10/11 02:17:31;;;;;;;8.40;2.45;;;15.30;99.90;;;;;;1917676;75;21150;-86
2022/10/11 02:20:25;;;;;;;4.15;2.30;;;15.30;99.90;;;;;;1930015;73;21074;-85
2022/10/11 02:23:19;;;;;;;3.62;2.15;;;15.30;99.90;;;;;;1929889;73;21090;-86
2022/10/11 02:26:13;;;;;;;2.75;2.02;;;15.20;99.90;;;;;;1917551;75;21142;-87
2022/10/11 02:29:07;;;;;;;4.45;2.22;;;15.20;99.90;;;;;;1924935;73;21092;-86
2022/10/11 02:34:41;;;;;;;4.50;2.45;;;15.30;99.90;;;;;;1944662;72;22182;-85
2022/10/11 02:37:36;;;;;;;2.75;2.02;;;15.30;99.90;;;;;;1911892;74;21059;-85
2022/10/11 02:40:31;;;;;;;4.25;1.90;;;15.30;99.90;;;;;;1905404;74;21119;-86
2022/10/11 02:43:25;;;;;;;3.58;1.72;;;15.40;99.90;;;;;;1920373;74;21102;-86
2022/10/11 02:46:18;;;;;;;3.02;2.10;;;15.40;99.90;;;;;;1919379;74;21470;-85
2022/10/11 02:49:10;;;;;;;3.58;1.90;;;15.40;99.90;;;;;;1923448;74;21148;-86
2022/10/11 02:52:03;;;;;;;3.33;2.00;;;15.30;99.90;;;;;;1905651;75;21055;-85
2022/10/11 02:54:55;;;;;;;5.22;2.10;;;15.30;99.90;;;;;;1916054;74;21132;-86
2022/10/11 03:00:36;;;;;;;3.27;2.20;;;15.30;99.90;;;;;;1958750;72;22581;-85
2022/10/11 03:03:27;;;;;;;2.80;2.00;;;15.30;99.90;;;;;;1914459;73;21219;-86
2022/10/11 03:06:19;;;;;;;2.98;1.77;;;15.30;99.90;;;;;;1906399;74;21106;-85
2022/10/11 03:11:59;;;;;;;6.20;2.10;;;15.30;99.90;;;;;;1924748;72;22255;-87
2022/10/11 03:14:51;;;;;;;3.77;2.10;;;15.30;99.90;;;;;;1905203;75;21220;-85
2022/10/11 03:17:43;;;;;;;5.92;2.52;;;15.30;99.90;;;;;;1891442;74;21522;-85
2022/10/11 03:20:35;;;;;;;4.20;1.90;;;15.30;99.90;;;;;;1883282;75;21199;-86
2022/10/11 03:23:26;;;;;;;2.70;1.75;;;15.30;99.90;;;;;;1900998;74;21137;-85
2022/10/11 03:26:18;;;;;;;2.67;2.37;;;15.30;99.90;;;;;;1909745;74;21118;-86
2022/10/11 03:29:09;;;;;;;3.30;2.00;;;15.20;99.90;;;;;;1928798;73;21136;-86
2022/10/11 03:32:01;;;;;;;2.87;1.70;;;15.20;99.90;;;;;;1899386;73;21152;-86
2022/10/11 03:34:55;;;;;;;2.83;1.90;;;15.10;99.90;;;;;;1892955;75;21097;-86
2022/10/11 03:37:50;;;;;;;3.52;2.15;;;15.10;99.90;;;;;;1900924;75;21133;-85
2022/10/11 03:40:41;;;;;;;4.97;2.27;;;15.10;99.90;;;;;;1908047;75;21183;-85
2022/10/11 03:46:21;;;;;;;3.40;2.50;;;15.00;99.90;;;;;;1976248;72;22123;-85
2022/10/11 03:49:13;;;;;;;3.27;2.05;;;15.00;99.90;;;;;;1905127;75;21649;-85
2022/10/11 03:54:53;;;;;;;5.22;1.87;;;14.90;99.90;;;;;;1937929;72;22197;-87
2022/10/11 04:00:34;;;;;;;6.20;2.58;;;14.90;99.90;;;;;;1946174;72;22074;-88
2022/10/11 04:03:26;;;;;;;4.15;2.40;;;14.90;99.90;;;;;;1911919;73;21218;-85
2022/10/11 04:06:17;;;;;;;6.80;3.05;;;14.90;99.90;;;;;;1865559;77;21079;-85
2022/10/11 04:09:09;;;;;;;4.58;2.65;;;14.80;99.90;;;;;;1905352;75;21085;-85
2022/10/11 04:12:00;;;;;;;6.58;2.33;;;14.90;99.90;;;;;;1905179;75;21214;-86
2022/10/11 04:17:31;;;;;;;6.20;2.40;;;14.90;99.90;;;;;;1941924;72;22427;-87
2022/10/11 04:20:23;;;;;;;5.92;2.58;;;14.90;99.90;;;;;;1911719;75;21051;-85
2022/10/11 04:23:14;;;;;;;4.80;2.37;;;14.90;99.90;;;;;;1908614;75;21098;-85
2022/10/11 04:26:08;;;;;;;6.05;2.60;;;14.90;99.90;;;;;;1900352;75;21532;-85
2022/10/11 04:29:00;;;;;;;5.45;3.12;;;15.00;99.90;;;;;;1906814;75;21548;-85
2022/10/11 04:31:51;;;;;;;4.67;2.47;;;15.00;99.90;;;;;;1905431;75;21477;-86
2022/10/11 04:34:43;;;;;;;5.45;2.40;;;15.00;99.90;;;;;;1917673;75;21055;-85
2022/10/11 04:37:34;;;;;;;8.43;3.25;;;15.00;99.90;;;;;;1910442;75;21675;-86
2022/10/11 04:40:26;;;;;;;8.18;2.87;;;15.00;99.90;;;;;;1889798;75;21169;-86
2022/10/11 04:43:18;;;;;;;8.98;2.90;;;15.00;99.90;;;;;;1838540;76;21176;-86
2022/10/11 04:46:10;;;;;;;2.87;2.37;;;15.00;99.90;;;;;;1897342;75;21047;-88
2022/10/11 04:49:02;;;;;;;5.15;2.45;;;15.00;99.90;;;;;;1914379;75;21061;-87
2022/10/11 04:51:53;;;;;;;4.62;2.42;;;15.00;99.90;;;;;;1909991;75;21670;-86
2022/10/11 04:57:34;;;;;;;6.30;2.47;;;15.00;99.90;;;;;;1942659;72;22138;-87
2022/10/11 05:00:26;;;;;;;8.05;3.92;;;15.00;99.90;;;;;;1894203;75;21094;-85
2022/10/11 05:03:17;;;;;;;5.72;2.42;;;15.10;99.90;;;;;;1884456;75;21154;-86
2022/10/11 05:06:09;;;;;;;6.25;2.55;;;15.10;99.90;;;;;;1891046;75;21145;-86
2022/10/11 05:09:01;;;;;;;3.25;2.10;;;15.10;99.90;;;;;;1905523;75;21128;-86
2022/10/11 05:14:33;;;;;;;4.00;2.55;;;15.00;99.90;;;;;;1952488;72;22256;-87
2022/10/11 05:20:14;;;;;;;3.35;2.55;;;14.90;99.90;;;;;;1953191;72;22754;-87
2022/10/11 05:23:07;;;;;;;4.72;3.15;;;14.90;99.90;;;;;;1925637;74;21151;-86
2022/10/11 05:25:58;;;;;;;6.30;2.47;;;14.80;99.90;;;;;;1915289;74;21067;-85
2022/10/11 05:28:51;;;;;;;6.80;2.90;;;14.80;99.90;;;;;;1868793;76;21541;-85
2022/10/11 05:34:38;;;;;;;5.53;3.00;;;14.70;99.90;;;;;;1944260;72;22266;-85
2022/10/11 05:37:29;;;;;;;4.35;3.00;;;14.70;99.90;;;;;;1909619;75;21062;-85
2022/10/11 05:40:20;;;;;;;9.40;2.75;;;14.70;99.90;;;;;;1898346;75;21483;-85
2022/10/11 05:46:06;;;;;;;8.08;3.40;;;14.70;99.90;;;;;;1918964;72;28002;-86
2022/10/11 05:48:58;;;;;;;6.15;3.45;;;14.90;99.90;;;;;;1898836;75;21138;-86
2022/10/11 05:54:33;;;;;;;6.47;2.90;;;14.80;99.90;;;;;;1946376;72;23289;-87
2022/10/11 06:00:06;;;;;;;4.90;3.00;;;14.80;99.90;;;;;;1915162;72;22588;-87
2022/10/11 06:02:59;;;;;;;8.35;3.02;;;14.80;99.90;;;;;;1901630;73;21059;-85
2022/10/11 06:05:51;;;;;;;5.97;2.87;;;14.70;99.90;;;;;;1891105;73;21144;-85
2022/10/11 06:11:34;;;;;;;4.08;2.67;;;14.70;99.90;;;;;;1938890;72;22614;-86
2022/10/11 06:14:26;;;;;;;6.80;2.75;;;14.70;99.90;;;;;;1887147;75;21106;-85
2022/10/11 06:20:00;;;;;;;5.10;2.95;;;14.70;99.90;;;;;;1931411;72;22129;-86
2022/10/11 06:25:31;;;;;;;6.42;2.98;;;14.80;99.90;;;;;;1946173;72;22168;-85
2022/10/11 06:28:22;;;;;;;7.47;3.10;;;14.80;99.90;;;;;;1929865;74;21233;-85
2022/10/11 06:34:03;;;;;;;11.03;3.10;;;14.90;99.90;;;;;;1938695;72;22091;-87
2022/10/11 06:39:35;;;;;;;6.87;3.40;;;14.70;99.90;;;;;;1942876;72;22176;-87
2022/10/11 06:42:26;;;;;;;7.10;2.95;;;14.70;99.90;;;;;;1927336;74;21237;-86
2022/10/11 06:45:18;;;;;;;7.28;3.60;;;14.80;99.90;;;;;;1924451;74;21107;-86
2022/10/11 06:48:09;;;;;;;8.53;3.83;;;14.90;99.90;;;;;;1916191;74;21040;-86
2022/10/11 06:51:00;;;;;;;11.90;3.95;;;14.80;99.90;;;;;;1921847;74;21225;-86
2022/10/11 06:53:54;;;;;;;9.23;3.77;;;14.80;99.90;;;;;;1910116;74;21099;-85
2022/10/11 06:56:45;;;;;;;5.60;3.12;;;14.80;99.90;;;;;;1905764;74;21214;-85
2022/10/11 06:59:38;;;;;;;9.48;3.80;;;14.80;99.90;;;;;;1918427;74;21514;-84
2022/10/11 07:02:29;;;;;;;5.08;3.25;;;14.80;99.90;;;;;;1917913;74;21055;-85
2022/10/11 07:05:21;;;;;;;11.48;6.65;;;14.80;99.90;;;;;;1913292;74;21140;-86
2022/10/11 07:08:12;;;;;;;10.95;4.67;;;14.90;99.90;;;;;;1931885;74;21137;-86
2022/10/11 07:11:07;;;;;;;10.43;4.25;;;15.00;99.90;;;;;;1905788;75;21095;-86
2022/10/11 07:19:19;;;;;;;8.05;3.47;;;15.10;99.90;;;;;;1956350;72;22242;-87
2022/10/11 07:24:54;;;;;;;8.85;4.25;;;15.10;99.90;;;;;;1951554;72;22189;-87
2022/10/11 07:30:25;;;;;;;9.10;4.15;;;15.30;99.90;;;;;;1938774;72;22574;-85
2022/10/11 07:33:18;;;;;;;12.05;3.92;;;15.30;99.90;;;;;;1908066;75;21161;-85
2022/10/11 07:36:11;;;;;;;9.60;4.67;;;15.40;99.90;;;;;;1889219;75;21093;-83
2022/10/11 07:39:05;;;;;;;6.97;4.87;;;15.40;99.90;;;;;;1898503;75;21111;-83
2022/10/11 07:41:57;;;;;;;8.05;4.20;;;15.40;99.90;;;;;;1897707;75;21051;-84
2022/10/11 07:44:48;;;;;;;8.20;3.75;;;15.40;99.90;;;;;;1872711;75;21060;-84
2022/10/11 07:47:45;;;;;;;6.70;3.17;;;15.50;99.90;;;;;;1873247;75;21153;-82
2022/10/11 07:50:35;;;;;;;12.55;3.55;;;15.50;99.90;;;;;;1897972;75;21622;-83
2022/10/11 07:53:32;;;;;;;9.40;3.87;;;15.50;99.90;;;;;;1904897;75;21064;-83
2022/10/11 07:56:26;;;;;;;9.87;3.43;;;15.60;99.90;;;;;;1883509;75;21123;-83
2022/10/11 08:02:14;;;;;;;6.40;3.33;;;15.70;99.90;;;;;;1931968;72;22118;-82
2022/10/11 08:05:10;;;;;;;10.70;4.20;;;15.80;99.90;;;;;;1893120;73;21286;-81
2022/10/11 08:08:05;;;;;;;7.25;3.72;;;15.90;99.90;;;;;;1907985;73;21581;-81
2022/10/11 08:10:57;;;;;;;7.42;4.37;;;16.00;99.90;;;;;;1896648;75;21079;-82
2022/10/11 08:16:45;;;;;;;7.22;3.92;;;16.20;99.90;;;;;;1921807;72;22184;-83
2022/10/11 08:22:26;;;;;;;11.15;4.42;;;16.30;99.90;;;;;;1953442;72;23083;-83
2022/10/11 08:25:17;;;;;;;7.25;4.22;;;16.40;99.90;;;;;;1898790;75;21301;-83
2022/10/11 08:28:09;;;;;;;9.73;3.40;;;16.50;99.90;;;;;;1894897;75;21052;-83
2022/10/11 08:31:04;;;;;;;7.78;3.90;;;16.60;99.90;;;;;;1889446;75;21109;-84
2022/10/11 08:33:58;;;;;;;8.98;3.30;;;16.70;99.90;;;;;;1909563;73;21091;-83
2022/10/11 08:36:49;;;;;;;8.58;3.08;;;16.70;99.90;;;;;;1916323;75;21079;-82
2022/10/11 08:39:41;;;;;;;6.45;3.00;;;16.80;99.90;;;;;;1900219;75;21187;-81
2022/10/11 08:45:19;;;;;;;6.00;2.50;;;17.00;99.90;;;;;;1952344;72;22726;-83
2022/10/11 08:48:14;;;;;;;4.58;3.00;;;17.00;99.90;;;;;;1925799;73;21094;-82
2022/10/11 08:51:11;;;;;;;7.00;3.20;;;17.20;99.90;;;;;;1916770;74;21716;-81
2022/10/11 08:54:05;;;;;;;4.53;2.65;;;17.20;99.90;;;;;;1947067;73;21054;-82
2022/10/11 08:56:59;;;;;;;3.90;2.80;;;17.30;99.90;;;;;;1927618;73;21049;-82
2022/10/11 08:59:54;;;;;;;5.00;3.17;;;17.40;99.90;;;;;;1916160;75;21056;-81
2022/10/11 09:06:08;;;;;;;4.55;2.83;;;17.50;99.90;;;;;;1923052;72;27925;-81
2022/10/11 09:09:26;;;;;;;6.08;3.00;;;17.70;99.90;;;;;;1875362;76;21059;-82
2022/10/11 09:15:18;;;;;;;6.50;2.40;;;17.80;99.90;;;;;;1964435;72;22150;-81
2022/10/11 09:18:18;;;;;;;5.15;2.12;;;17.90;99.90;;;;;;1930098;73;21217;-90
2022/10/11 09:21:26;;;;;;;3.42;2.22;;;18.00;99.90;;;;;;1920222;75;21120;-90
2022/10/11 09:24:22;;;;;;;;;;;18.00;99.90;;;;;;1924917;73;21171;-90
2022/10/11 09:29:59;;;;;;;4.58;2.50;;;18.00;99.90;;;;;;1940504;72;22226;-90
2022/10/11 09:32:57;;;;;;;6.15;2.12;;;18.00;99.90;;;;;;1911489;73;21169;-90
2022/10/11 09:35:52;;;;;;;3.08;2.45;;;18.10;99.90;;;;;;1934215;74;21051;-90
2022/10/11 09:38:47;;;;;;;6.30;2.70;;;18.10;99.90;;;;;;1902496;74;21135;-90
2022/10/11 09:41:43;;;;;;;4.92;2.42;;;18.20;99.90;;;;;;1885038;76;21062;-90
2022/10/11 09:57:59;;;;;;;3.92;1.65;;;18.30;99.90;;;;;;1949642;72;22103;-91
2022/10/11 10:01:07;;;;;;;5.47;2.00;;;18.60;99.90;;;;;;1905388;75;21043;-90
2022/10/11 10:04:09;;;;;;;4.53;2.30;;;18.70;99.90;;;;;;1914454;73;21156;-90
2022/10/11 10:10:01;;;;;;;4.62;1.90;;;18.90;99.90;;;;;;1949535;72;22144;-90
2022/10/11 10:12:57;;;;;;;4.67;2.12;;;19.00;99.90;;;;;;1900991;75;21317;-91
2022/10/11 10:15:52;;;;;;;3.02;1.82;;;19.10;99.90;;;;;;1894477;73;21091;-91
2022/10/11 10:21:31;;;;;;;4.90;2.40;;;19.20;99.90;;;;;;1912428;72;28121;-90
2022/10/11 10:24:28;;;;;;;2.55;1.90;;;19.50;99.90;;;;;;1932789;74;21071;-91
2022/10/11 10:27:23;;;;;;;3.30;2.47;;;19.50;99.90;;;;;;1904631;75;21157;-91
2022/10/11 10:30:19;;;;;;;3.47;2.58;;;19.50;99.90;;;;;;1925138;74;21105;-90
2022/10/11 10:33:15;;;;;;;3.90;2.10;;;19.50;99.90;;;;;;1913741;73;21125;-91
2022/10/11 10:36:13;;;;;;;5.62;2.22;;;19.60;99.90;;;;;;1917897;75;21096;-91
2022/10/11 10:39:08;;;;;;;4.90;1.90;;;19.50;99.90;;;;;;1913989;75;21160;-91
2022/10/11 10:42:02;;;;;;;6.67;2.00;;;19.60;99.90;;;;;;1917796;75;21059;-91
2022/10/11 10:44:57;;;;;;;5.97;2.25;;;19.60;99.90;;;;;;1900782;75;21550;-91
2022/10/11 10:47:59;;;;;;;4.28;2.10;;;19.70;99.90;;;;;;1896360;73;21101;-91
2022/10/11 10:50:54;;;;;;;4.10;2.45;;;19.80;99.90;;;;;;1917907;75;21495;-92
2022/10/11 10:53:49;;;;;;;4.62;2.17;;;19.80;99.90;;;;;;1894915;74;21245;-91
2022/10/11 10:59:46;;;;;;;4.90;2.60;;;19.90;99.90;;;;;;1935860;72;28093;-93
2022/10/11 11:05:33;;;;;;;3.67;2.33;;;20.30;99.90;;;;;;1942049;72;22216;-90
2022/10/11 11:08:31;;;;;;;3.27;2.00;;;20.30;99.90;;;;;;1883907;75;21133;-91
2022/10/11 11:11:34;;;;;;;5.83;2.05;;;20.30;99.90;;;;;;1871122;75;21171;-90
2022/10/11 11:14:34;;;;;;;5.03;2.25;;;20.30;99.90;;;;;;1888705;73;21086;-90
2022/10/11 11:17:32;;;;;;;3.47;2.15;;;20.40;99.90;;;;;;1889004;73;21102;-90
2022/10/11 11:20:42;;;;;;;4.80;2.05;;;20.40;99.90;;;;;;1873686;75;21061;-90
2022/10/11 11:23:38;;;;;;;2.92;2.08;;;20.50;99.90;;;;;;1873212;75;21074;-91
2022/10/11 11:26:33;;;;;;;7.20;1.70;;;20.50;99.90;;;;;;1882639;75;21047;-90
2022/10/11 11:29:32;;;;;;;3.37;1.90;;;20.60;99.90;;;;;;1886676;73;21110;-90
2022/10/11 11:32:29;;;;;;;3.42;1.70;;;20.80;99.90;;;;;;1873928;75;21152;-90
2022/10/11 11:38:21;;;;;;;1.90;1.40;;;20.90;99.90;;;;;;1947414;72;22274;-92
2022/10/11 11:41:19;;;;;;;2.17;1.30;;;20.90;99.90;;;;;;1917832;75;21067;-90
2022/10/11 11:44:15;;;;;;;2.35;1.50;;;20.80;99.90;;;;;;1931295;73;21148;-90
2022/10/11 11:47:10;;;;;;;1.20;1.10;;;20.90;99.90;;;;;;1917894;73;21086;-90
2022/10/11 11:50:06;;;;;;;3.25;1.92;;;20.90;99.90;;;;;;1920665;73;21146;-91
2022/10/11 11:53:00;;;;;;;1.87;1.40;;;20.90;99.90;;;;;;1932960;73;21110;-90
2022/10/11 11:55:54;;;;;;;2.42;1.55;;;21.00;99.90;;;;;;1924368;73;21176;-90
2022/10/11 11:58:50;;;;;;;3.12;1.30;;;21.10;99.90;;;;;;1927673;73;21042;-90
2022/10/11 12:01:44;;;;;;;2.22;1.70;;;21.20;99.90;;;;;;1937103;73;21098;-91
2022/10/11 12:04:39;;;;;;;5.20;1.25;;;21.30;99.90;;;;;;1931505;73;21081;-91
2022/10/11 12:07:31;;;;;;;3.45;1.30;;;21.40;99.90;;;;;;1918753;73;21248;-92
2022/10/11 12:10:40;;;;;;;3.65;2.00;;;21.50;99.90;;;;;;1939818;73;21117;-82
2022/10/11 12:16:22;;;;;;;4.37;1.75;;;21.50;99.90;;;;;;1935877;72;22082;-82
2022/10/11 12:19:15;;;;;;;2.33;1.57;;;21.40;99.90;;;;;;1895375;75;21196;-82
2022/10/11 12:22:42;;;;;;;3.20;1.62;;;21.50;99.90;;;;;;1891901;75;21086;-82
2022/10/11 12:25:42;;;;;;;2.25;1.47;;;21.50;99.90;;;;;;1892018;75;21083;-82
2022/10/11 12:29:03;;;;;;;3.15;1.40;;;21.30;99.90;;;;;;1915815;74;21072;-82
2022/10/11 12:32:31;;;;;;;3.27;1.50;;;21.40;99.90;;;;;;1898630;75;21134;-82
2022/10/11 12:36:00;;;;;;;4.05;1.60;;;21.50;99.90;;;;;;1884624;75;21215;-82
2022/10/11 12:39:39;;;;;;;3.85;1.90;;;21.60;99.90;;;;;;1884418;75;21793;-82
2022/10/11 12:45:32;;;;;;;5.85;1.98;;;21.80;99.90;;;;;;1944078;72;22099;-81
2022/10/11 12:51:43;;;;;;;4.85;1.67;;;21.80;99.90;;;;;;1930923;72;22122;-82
2022/10/11 12:55:01;;;;;;;3.10;1.50;;;22.00;99.90;;;;;;1891444;75;21071;-83
2022/10/11 13:00:55;;;;;;;3.05;2.00;;;22.20;99.90;;;;;;1915359;72;22204;-83
2022/10/11 13:03:53;;;;;;;4.30;1.72;;;22.20;99.90;;;;;;1904675;75;21117;-82
2022/10/11 13:06:49;;;;;;;4.45;1.65;;;22.20;99.90;;;;;;1905973;73;21054;-82
2022/10/11 13:09:45;;;;;;;4.00;1.70;;;22.30;99.90;;;;;;1907693;75;21156;-82
2022/10/11 13:15:28;;;;;;;2.77;1.22;;;22.40;99.90;;;;;;1934026;72;22238;-81
2022/10/11 13:21:25;;;;;;;3.62;1.82;;;22.70;99.90;;;;;;1947341;72;22087;-81
2022/10/11 13:24:19;;;;;;;3.47;1.80;;;22.80;99.90;;;;;;1910174;75;21059;-82
2022/10/11 13:27:19;;;;;;;4.90;1.50;;;22.80;99.90;;;;;;1895633;75;21213;-82
2022/10/11 13:30:17;;;;;;;3.70;1.37;;;22.90;99.90;;;;;;1903909;75;21117;-82
2022/10/11 13:35:50;;;;;;;2.75;1.47;;;23.00;99.90;;;;;;1911212;72;22280;-81
2022/10/11 13:38:43;;;;;;;2.27;1.35;;;23.00;99.90;;;;;;1891141;74;21155;-82
2022/10/11 13:41:35;;;;;;;2.98;1.42;;;23.00;99.90;;;;;;1896096;73;21430;-82
2022/10/11 13:44:27;;;;;;;1.67;1.10;;;23.00;99.90;;;;;;1900240;75;21063;-82
2022/10/11 13:50:22;;;;;;;3.02;1.77;;;22.70;99.90;;;;;;1934225;72;22659;-81
2022/10/11 13:53:29;;;;;;;3.87;1.60;;;22.80;99.90;;;;;;1894795;74;21142;-82
2022/10/11 13:56:21;;;;;;;2.35;1.40;;;22.80;99.90;;;;;;1907611;75;21130;-82
2022/10/11 14:02:08;;;;;;;3.00;1.52;;;22.80;99.90;;;;;;1935220;72;22609;-82
2022/10/11 14:05:00;;;;;;;4.37;1.30;;;22.80;99.90;;;;;;1902107;75;21116;-82
2022/10/11 14:07:52;;;;;;;4.50;1.70;;;22.80;99.90;;;;;;1897425;75;21094;-82
2022/10/11 14:10:48;;;;;;;3.80;1.70;;;22.80;99.90;;;;;;1884602;75;21178;-81
2022/10/11 14:16:31;;;;;;;6.25;1.98;;;23.40;99.90;;;;;;1942002;72;22273;-82
2022/10/11 14:19:31;;;;;;;3.35;1.40;;;24.00;99.90;;;;;;1893282;74;21146;-83
2022/10/11 14:22:29;;;;;;;3.27;1.67;;;24.00;99.90;;;;;;1884437;75;21046;-82
2022/10/11 14:25:20;;;;;;;5.70;1.82;;;23.90;99.90;;;;;;1898734;75;21050;-82
2022/10/11 14:28:13;;;;;;;3.58;1.62;;;24.00;99.90;;;;;;1901006;75;21056;-83
2022/10/11 14:31:07;;;;;;;2.45;1.60;;;24.20;99.90;;;;;;1906214;75;21110;-82
2022/10/11 14:34:01;;;;;;;3.55;1.50;;;24.10;99.90;;;;;;1900375;73;21530;-82
2022/10/11 14:36:56;;;;;;;2.62;1.85;;;23.80;99.90;;;;;;1903480;75;21118;-82
2022/10/11 14:39:48;;;;;;;5.20;1.87;;;23.20;99.90;;;;;;1897646;75;21051;-82
2022/10/11 14:42:40;;;;;;;4.40;1.80;;;22.80;99.90;;;;;;1906007;75;21060;-82
2022/10/11 14:45:34;;;;;;;4.85;2.17;;;22.70;99.90;;;;;;1908484;75;21514;-82
2022/10/11 14:48:26;;;;;;;3.45;2.02;;;22.50;99.90;;;;;;1898449;75;21558;-82
2022/10/11 14:54:05;;;;;;;7.95;2.50;;;22.30;99.90;;;;;;1948780;72;22158;-81
2022/10/11 14:57:01;;;;;;;5.25;2.30;;;22.40;99.90;;;;;;1924339;73;21071;-81
2022/10/11 14:59:53;;;;;;;5.15;2.10;;;22.30;99.90;;;;;;1917816;73;21085;-84
2022/10/11 15:02:44;;;;;;;5.53;2.00;;;22.20;99.90;;;;;;1919830;73;21101;-82
2022/10/11 15:05:36;;;;;;;5.70;2.12;;;22.20;99.90;;;;;;1930774;73;21577;-82
2022/10/11 15:11:10;;;;;;;3.42;1.70;;;22.20;99.90;;;;;;1929758;72;22223;-82
2022/10/11 15:14:02;;;;;;;5.05;2.02;;;22.30;99.90;;;;;;1900834;75;21177;-82
2022/10/11 15:16:55;;;;;;;3.20;1.77;;;22.20;99.90;;;;;;1903541;75;21073;-83
2022/10/11 15:19:46;;;;;;;6.70;2.15;;;22.30;99.90;;;;;;1897714;75;21036;-82
2022/10/11 15:25:19;;;;;;;3.70;1.85;;;23.50;99.90;;;;;;1925994;72;22235;-82
2022/10/11 15:30:49;;;;;;;4.20;1.80;;;23.50;99.90;;;;;;1923999;72;22223;-82
2022/10/11 15:33:40;;;;;;;4.20;2.05;;;23.30;99.90;;;;;;1902225;74;21074;-82
2022/10/11 15:36:32;;;;;;;5.08;1.98;;;23.40;99.90;;;;;;1895074;73;21026;-82
2022/10/11 15:39:31;;;;;;;5.40;2.52;;;23.80;99.90;;;;;;1902126;75;21503;-83
2022/10/11 15:45:04;;;;;;;3.92;2.20;;;22.90;99.90;;;;;;1924758;72;22216;-82
2022/10/11 15:47:56;;;;;;;4.15;2.15;;;22.50;99.90;;;;;;1880227;75;21158;-81
2022/10/11 15:53:31;;;;;;;4.03;2.83;;;22.60;99.90;;;;;;1925758;72;22193;-82
2022/10/11 15:56:22;;;;;;;6.50;2.60;;;22.40;99.90;;;;;;1888079;73;21567;-82
2022/10/11 15:59:14;;;;;;;4.33;2.22;;;22.20;99.90;;;;;;1884649;75;21132;-83
2022/10/11 16:02:06;;;;;;;5.72;2.40;;;22.00;99.90;;;;;;1894565;75;21163;-83
2022/10/11 16:04:58;;;;;;;2.25;2.00;;;21.90;99.90;;;;;;1884250;75;21115;-83
2022/10/11 16:10:31;;;;;;;4.28;2.20;;;21.70;99.90;;;;;;1940079;72;22183;-82
2022/10/11 16:13:22;;;;;;;3.70;2.40;;;21.70;99.90;;;;;;1881407;75;21055;-83
2022/10/11 16:16:13;;;;;;;4.10;2.05;;;21.50;99.90;;;;;;1884162;75;21655;-83
2022/10/11 16:19:05;;;;;;;5.12;2.40;;;21.40;99.90;;;;;;1881978;75;21120;-82
2022/10/11 16:21:56;;;;;;;4.20;2.20;;;21.40;99.90;;;;;;1916290;73;21050;-82
2022/10/11 16:24:49;;;;;;;2.67;2.12;;;21.30;99.90;;;;;;1892610;75;21121;-84
2022/10/11 16:27:40;;;;;;;3.67;2.30;;;21.10;99.90;;;;;;1886153;75;21144;-83
2022/10/11 16:30:32;;;;;;;3.98;2.65;;;21.00;99.90;;;;;;1887559;75;21140;-82
2022/10/11 16:33:24;;;;;;;2.52;1.90;;;21.00;99.90;;;;;;1891210;75;21099;-82
2022/10/11 16:36:39;;;;;;;3.58;2.50;;;21.00;99.90;;;;;;1889845;75;21090;-82
2022/10/11 16:39:32;;;;;;;4.12;2.60;;;20.90;99.90;;;;;;1894134;75;21117;-82
2022/10/11 16:45:07;;;;;;;6.95;3.00;;;20.90;99.90;;;;;;1953127;72;22221;-84
2022/10/11 16:47:58;;;;;;;6.17;2.90;;;20.80;99.90;;;;;;1924741;74;21164;-82
2022/10/11 16:50:49;;;;;;;6.67;3.12;;;20.70;99.90;;;;;;1916186;74;21058;-82
2022/10/11 16:53:41;;;;;;;8.00;3.00;;;20.70;99.90;;;;;;1916207;74;21095;-82
2022/10/11 16:56:32;;;;;;;5.40;3.00;;;20.60;99.90;;;;;;1905744;74;21113;-82
2022/10/11 17:02:05;;;;;;;7.92;3.35;;;20.50;99.90;;;;;;1933526;72;22130;-83
2022/10/11 17:04:56;;;;;;;6.00;3.40;;;20.50;99.90;;;;;;1899434;75;21060;-82
2022/10/11 17:07:48;;;;;;;6.75;2.90;;;20.40;99.90;;;;;;1887388;75;21172;-83
2022/10/11 17:10:43;;;;;;;4.22;3.30;;;20.40;99.90;;;;;;1902761;75;21040;-83
2022/10/11 17:16:13;;;;;;;5.05;3.52;;;20.20;99.90;;;;;;1931663;72;22111;-82
2022/10/11 17:19:05;;;;;;;7.70;2.98;;;20.20;99.90;;;;;;1894492;75;21095;-82
2022/10/11 17:21:56;;;;;;;5.28;3.40;;;20.20;99.90;;;;;;1889368;73;21077;-82
2022/10/11 17:24:48;;;;;;;5.70;3.30;;;20.10;99.90;;;;;;1888858;75;21053;-83
2022/10/11 17:30:20;;;;;;;6.28;2.65;;;20.00;99.90;;;;;;1949595;72;22143;-82
2022/10/11 17:33:11;;;;;;;7.20;4.12;;;19.90;99.90;;;;;;1907506;73;21114;-82
2022/10/11 17:36:04;;;;;;;5.40;2.90;;;19.80;99.90;;;;;;1923174;74;21057;-82
2022/10/11 17:38:59;;;;;;;4.60;2.83;;;19.80;99.90;;;;;;1915305;74;21196;-83
2022/10/11 17:41:51;;;;;;;7.10;2.90;;;19.80;99.90;;;;;;1923256;74;21127;-83
2022/10/11 17:44:43;;;;;;;2.87;2.42;;;19.70;99.90;;;;;;1923409;74;21084;-82
2022/10/11 17:47:35;;;;;;;5.53;2.83;;;19.70;99.90;;;;;;1917419;74;21083;-83
2022/10/11 17:53:09;;;;;;;5.45;3.00;;;19.50;99.90;;;;;;1935647;72;22250;-82
2022/10/11 17:56:02;;;;;;;3.95;2.95;;;19.50;99.90;;;;;;1892082;75;21341;-82
2022/10/11 17:58:55;;;;;;;6.53;3.50;;;19.40;99.90;;;;;;1886603;75;21073;-82
2022/10/11 18:01:47;;;;;;;7.12;3.45;;;19.40;99.90;;;;;;1891871;75;21055;-82
2022/10/11 18:04:39;;;;;;;7.53;3.25;;;19.40;99.90;;;;;;1882788;75;21157;-83
2022/10/11 18:10:09;;;;;;;5.42;2.87;;;19.20;99.90;;;;;;1951170;72;22224;-84
2022/10/11 18:15:40;;;;;;;4.75;2.60;;;19.10;99.90;;;;;;1945874;72;22120;-82
2022/10/11 18:21:10;;;;;;;6.30;2.90;;;18.80;99.90;;;;;;1937674;72;22779;-81
2022/10/11 18:26:39;;;;;;;7.55;3.42;;;18.70;99.90;;;;;;1936636;72;22306;-82
2022/10/11 18:29:31;;;;;;;10.63;2.75;;;18.60;99.90;;;;;;1911680;74;21555;-82
2022/10/11 18:32:22;;;;;;;6.28;2.98;;;18.50;99.90;;;;;;1894374;74;21106;-82
2022/10/11 18:35:14;;;;;;;5.78;2.70;;;18.50;99.90;;;;;;1901364;75;21135;-82